sensor_id;sensor_type;location;lat;lon;timestamp;P1;durP1;ratioP1;P2;durP2;ratioP2
45366;SDS011;31100;55.848;37.636;2023-03-05T00:02:02;2.65;;;1.00;;
45366;SDS011;31100;55.848;37.636;2023-03-05T00:04:28;3.63;;;1.20;;
45366;SDS011;31100;55.848;37.636;2023-03-05T00:06:53;2.70;;;1.63;;
45366;SDS011;31100;55.848;37.636;2023-03-05T00:09:20;2.85;;;1.20;;
45366;SDS011;31100;55.848;37.636;2023-03-05T00:11:45;3.28;;;1.90;;
45366;SDS011;31100;55.848;37.636;2023-03-05T00:14:11;2.10;;;1.10;;
45366;SDS011;31100;55.848;37.636;2023-03-05T00:16:37;2.42;;;1.10;;
45366;SDS011;31100;55.848;37.636;2023-03-05T00:19:03;3.33;;;1.20;;
45366;SDS011;31100;55.848;37.636;2023-03-05T00:21:31;2.90;;;1.10;;
45366;SDS011;31100;55.848;37.636;2023-03-05T00:23:59;2.15;;;0.95;;
45366;SDS011;31100;55.848;37.636;2023-03-05T00:26:25;2.95;;;1.48;;
45366;SDS011;31100;55.848;37.636;2023-03-05T00:28:51;4.35;;;1.00;;
45366;SDS011;31100;55.848;37.636;2023-03-05T00:31:18;2.33;;;1.23;;
45366;SDS011;31100;55.848;37.636;2023-03-05T00:33:45;3.05;;;1.38;;
45366;SDS011;31100;55.848;37.636;2023-03-05T00:36:12;2.70;;;1.10;;
45366;SDS011;31100;55.848;37.636;2023-03-05T00:38:38;2.50;;;1.20;;
45366;SDS011;31100;55.848;37.636;2023-03-05T00:41:03;3.42;;;1.27;;
45366;SDS011;31100;55.848;37.636;2023-03-05T00:43:29;2.05;;;1.00;;
45366;SDS011;31100;55.848;37.636;2023-03-05T00:45:55;2.72;;;1.20;;
45366;SDS011;31100;55.848;37.636;2023-03-05T00:48:20;2.50;;;1.23;;
45366;SDS011;31100;55.848;37.636;2023-03-05T00:50:49;3.45;;;1.15;;
45366;SDS011;31100;55.848;37.636;2023-03-05T00:53:15;3.60;;;1.20;;
45366;SDS011;31100;55.848;37.636;2023-03-05T00:55:41;3.22;;;1.10;;
45366;SDS011;31100;55.848;37.636;2023-03-05T00:58:06;3.25;;;1.10;;
45366;SDS011;31100;55.848;37.636;2023-03-05T01:00:32;3.42;;;1.60;;
45366;SDS011;31100;55.848;37.636;2023-03-05T01:02:57;2.78;;;1.27;;
45366;SDS011;31100;55.848;37.636;2023-03-05T01:05:23;1.77;;;1.00;;
45366;SDS011;31100;55.848;37.636;2023-03-05T01:07:51;2.45;;;1.00;;
45366;SDS011;31100;55.848;37.636;2023-03-05T01:10:18;3.83;;;1.30;;
45366;SDS011;31100;55.848;37.636;2023-03-05T01:12:44;1.90;;;1.05;;
45366;SDS011;31100;55.848;37.636;2023-03-05T01:15:09;3.33;;;1.20;;
45366;SDS011;31100;55.848;37.636;2023-03-05T01:17:35;2.72;;;1.15;;
45366;SDS011;31100;55.848;37.636;2023-03-05T01:20:00;2.20;;;1.00;;
45366;SDS011;31100;55.848;37.636;2023-03-05T01:22:26;2.38;;;1.40;;
45366;SDS011;31100;55.848;37.636;2023-03-05T01:24:52;2.75;;;1.10;;
45366;SDS011;31100;55.848;37.636;2023-03-05T01:27:17;2.75;;;1.00;;
45366;SDS011;31100;55.848;37.636;2023-03-05T01:29:43;2.40;;;1.10;;
45366;SDS011;31100;55.848;37.636;2023-03-05T01:32:08;2.78;;;1.40;;
45366;SDS011;31100;55.848;37.636;2023-03-05T01:34:35;2.38;;;1.10;;
45366;SDS011;31100;55.848;37.636;2023-03-05T01:37:01;1.92;;;1.00;;
45366;SDS011;31100;55.848;37.636;2023-03-05T01:39:27;2.53;;;1.00;;
45366;SDS011;31100;55.848;37.636;2023-03-05T01:41:52;3.88;;;1.50;;
45366;SDS011;31100;55.848;37.636;2023-03-05T01:44:22;2.33;;;1.13;;
45366;SDS011;31100;55.848;37.636;2023-03-05T01:46:49;2.90;;;1.02;;
45366;SDS011;31100;55.848;37.636;2023-03-05T01:49:16;2.83;;;1.08;;
45366;SDS011;31100;55.848;37.636;2023-03-05T01:54:35;3.80;;;1.02;;
45366;SDS011;31100;55.848;37.636;2023-03-05T01:57:06;4.72;;;1.33;;
45366;SDS011;31100;55.848;37.636;2023-03-05T01:59:35;3.72;;;1.33;;
45366;SDS011;31100;55.848;37.636;2023-03-05T02:02:02;1.70;;;0.80;;
45366;SDS011;31100;55.848;37.636;2023-03-05T02:04:31;1.92;;;0.90;;
45366;SDS011;31100;55.848;37.636;2023-03-05T02:07:00;4.32;;;1.25;;
45366;SDS011;31100;55.848;37.636;2023-03-05T02:09:26;3.00;;;1.00;;
45366;SDS011;31100;55.848;37.636;2023-03-05T02:11:52;2.90;;;1.00;;
45366;SDS011;31100;55.848;37.636;2023-03-05T02:14:18;2.63;;;0.90;;
45366;SDS011;31100;55.848;37.636;2023-03-05T02:16:44;2.78;;;0.90;;
45366;SDS011;31100;55.848;37.636;2023-03-05T02:19:10;1.90;;;0.90;;
45366;SDS011;31100;55.848;37.636;2023-03-05T02:21:37;1.88;;;0.82;;
45366;SDS011;31100;55.848;37.636;2023-03-05T02:24:08;4.47;;;1.05;;
45366;SDS011;31100;55.848;37.636;2023-03-05T02:26:36;4.10;;;1.00;;
45366;SDS011;31100;55.848;37.636;2023-03-05T02:29:01;1.98;;;0.90;;
45366;SDS011;31100;55.848;37.636;2023-03-05T02:31:28;2.05;;;1.20;;
45366;SDS011;31100;55.848;37.636;2023-03-05T02:33:55;2.15;;;1.10;;
45366;SDS011;31100;55.848;37.636;2023-03-05T02:36:21;3.03;;;1.15;;
45366;SDS011;31100;55.848;37.636;2023-03-05T02:38:47;2.80;;;0.90;;
45366;SDS011;31100;55.848;37.636;2023-03-05T02:41:14;4.82;;;1.10;;
45366;SDS011;31100;55.848;37.636;2023-03-05T02:43:40;2.08;;;1.00;;
45366;SDS011;31100;55.848;37.636;2023-03-05T02:46:05;2.15;;;0.75;;
45366;SDS011;31100;55.848;37.636;2023-03-05T02:48:31;2.20;;;0.90;;
45366;SDS011;31100;55.848;37.636;2023-03-05T02:50:57;4.75;;;1.15;;
45366;SDS011;31100;55.848;37.636;2023-03-05T02:53:23;4.70;;;1.02;;
45366;SDS011;31100;55.848;37.636;2023-03-05T02:55:50;4.03;;;1.10;;
45366;SDS011;31100;55.848;37.636;2023-03-05T02:58:15;3.72;;;1.20;;
45366;SDS011;31100;55.848;37.636;2023-03-05T03:00:41;2.90;;;1.10;;
45366;SDS011;31100;55.848;37.636;2023-03-05T03:03:07;3.67;;;1.10;;
45366;SDS011;31100;55.848;37.636;2023-03-05T03:05:34;4.05;;;1.20;;
45366;SDS011;31100;55.848;37.636;2023-03-05T03:08:00;2.58;;;0.75;;
45366;SDS011;31100;55.848;37.636;2023-03-05T03:10:26;2.40;;;1.00;;
45366;SDS011;31100;55.848;37.636;2023-03-05T03:12:51;3.53;;;1.00;;
45366;SDS011;31100;55.848;37.636;2023-03-05T03:15:17;3.78;;;1.10;;
45366;SDS011;31100;55.848;37.636;2023-03-05T03:17:43;3.08;;;0.90;;
45366;SDS011;31100;55.848;37.636;2023-03-05T03:20:10;3.63;;;1.00;;
45366;SDS011;31100;55.848;37.636;2023-03-05T03:22:38;3.25;;;1.30;;
45366;SDS011;31100;55.848;37.636;2023-03-05T03:25:04;2.63;;;1.20;;
45366;SDS011;31100;55.848;37.636;2023-03-05T03:27:30;4.15;;;2.25;;
45366;SDS011;31100;55.848;37.636;2023-03-05T03:29:56;3.45;;;1.20;;
45366;SDS011;31100;55.848;37.636;2023-03-05T03:32:25;3.20;;;1.20;;
45366;SDS011;31100;55.848;37.636;2023-03-05T03:34:50;4.07;;;1.58;;
45366;SDS011;31100;55.848;37.636;2023-03-05T03:37:16;3.85;;;1.52;;
45366;SDS011;31100;55.848;37.636;2023-03-05T03:39:41;4.20;;;1.30;;
45366;SDS011;31100;55.848;37.636;2023-03-05T03:42:07;2.00;;;1.08;;
45366;SDS011;31100;55.848;37.636;2023-03-05T03:44:32;5.10;;;1.55;;
45366;SDS011;31100;55.848;37.636;2023-03-05T03:46:58;3.35;;;1.30;;
45366;SDS011;31100;55.848;37.636;2023-03-05T03:49:24;2.95;;;1.52;;
45366;SDS011;31100;55.848;37.636;2023-03-05T03:51:51;4.65;;;1.60;;
45366;SDS011;31100;55.848;37.636;2023-03-05T03:54:22;3.00;;;1.30;;
45366;SDS011;31100;55.848;37.636;2023-03-05T03:56:48;3.90;;;1.55;;
45366;SDS011;31100;55.848;37.636;2023-03-05T03:59:14;3.42;;;1.25;;
45366;SDS011;31100;55.848;37.636;2023-03-05T04:01:39;3.42;;;2.15;;
45366;SDS011;31100;55.848;37.636;2023-03-05T04:04:05;4.07;;;1.30;;
45366;SDS011;31100;55.848;37.636;2023-03-05T04:06:31;2.42;;;1.20;;
45366;SDS011;31100;55.848;37.636;2023-03-05T04:08:57;4.65;;;1.60;;
45366;SDS011;31100;55.848;37.636;2023-03-05T04:11:23;2.83;;;1.23;;
45366;SDS011;31100;55.848;37.636;2023-03-05T04:13:49;3.40;;;1.20;;
45366;SDS011;31100;55.848;37.636;2023-03-05T04:16:15;10.93;;;1.77;;
45366;SDS011;31100;55.848;37.636;2023-03-05T04:18:40;3.50;;;1.10;;
45366;SDS011;31100;55.848;37.636;2023-03-05T04:21:07;3.47;;;1.40;;
45366;SDS011;31100;55.848;37.636;2023-03-05T04:23:33;2.80;;;1.17;;
45366;SDS011;31100;55.848;37.636;2023-03-05T04:25:58;3.47;;;1.40;;
45366;SDS011;31100;55.848;37.636;2023-03-05T04:28:24;4.10;;;1.27;;
45366;SDS011;31100;55.848;37.636;2023-03-05T04:30:49;3.40;;;1.50;;
45366;SDS011;31100;55.848;37.636;2023-03-05T04:33:15;2.42;;;1.00;;
45366;SDS011;31100;55.848;37.636;2023-03-05T04:35:41;2.95;;;1.35;;
45366;SDS011;31100;55.848;37.636;2023-03-05T04:38:07;3.13;;;1.38;;
45366;SDS011;31100;55.848;37.636;2023-03-05T04:40:33;4.55;;;1.70;;
45366;SDS011;31100;55.848;37.636;2023-03-05T04:42:59;2.78;;;1.00;;
45366;SDS011;31100;55.848;37.636;2023-03-05T04:45:24;3.03;;;1.02;;
45366;SDS011;31100;55.848;37.636;2023-03-05T04:47:50;4.82;;;2.95;;
45366;SDS011;31100;55.848;37.636;2023-03-05T04:50:16;2.88;;;1.40;;
45366;SDS011;31100;55.848;37.636;2023-03-05T04:52:42;4.03;;;1.30;;
45366;SDS011;31100;55.848;37.636;2023-03-05T04:55:09;6.75;;;2.63;;
45366;SDS011;31100;55.848;37.636;2023-03-05T04:57:35;2.80;;;1.30;;
45366;SDS011;31100;55.848;37.636;2023-03-05T05:00:02;2.30;;;1.10;;
45366;SDS011;31100;55.848;37.636;2023-03-05T05:02:31;4.18;;;1.40;;
45366;SDS011;31100;55.848;37.636;2023-03-05T05:04:57;2.63;;;1.25;;
45366;SDS011;31100;55.848;37.636;2023-03-05T05:07:22;3.15;;;0.90;;
45366;SDS011;31100;55.848;37.636;2023-03-05T05:09:48;4.35;;;1.33;;
45366;SDS011;31100;55.848;37.636;2023-03-05T05:12:14;3.25;;;0.90;;
45366;SDS011;31100;55.848;37.636;2023-03-05T05:14:39;4.18;;;0.90;;
45366;SDS011;31100;55.848;37.636;2023-03-05T05:17:05;3.67;;;1.10;;
45366;SDS011;31100;55.848;37.636;2023-03-05T05:19:31;2.65;;;1.10;;
45366;SDS011;31100;55.848;37.636;2023-03-05T05:21:58;4.40;;;1.88;;
45366;SDS011;31100;55.848;37.636;2023-03-05T05:24:24;3.75;;;1.85;;
45366;SDS011;31100;55.848;37.636;2023-03-05T05:26:49;3.00;;;1.13;;
45366;SDS011;31100;55.848;37.636;2023-03-05T05:29:15;4.25;;;1.35;;
45366;SDS011;31100;55.848;37.636;2023-03-05T05:31:41;3.67;;;1.40;;
45366;SDS011;31100;55.848;37.636;2023-03-05T05:34:06;4.30;;;1.30;;
45366;SDS011;31100;55.848;37.636;2023-03-05T05:36:32;5.70;;;1.15;;
45366;SDS011;31100;55.848;37.636;2023-03-05T05:38:57;2.42;;;1.00;;
45366;SDS011;31100;55.848;37.636;2023-03-05T05:41:23;3.50;;;1.00;;
45366;SDS011;31100;55.848;37.636;2023-03-05T05:43:49;3.42;;;1.08;;
45366;SDS011;31100;55.848;37.636;2023-03-05T05:46:16;6.88;;;1.42;;
45366;SDS011;31100;55.848;37.636;2023-03-05T05:48:43;4.93;;;1.23;;
45366;SDS011;31100;55.848;37.636;2023-03-05T05:51:13;4.80;;;1.00;;
45366;SDS011;31100;55.848;37.636;2023-03-05T05:53:41;3.75;;;0.85;;
45366;SDS011;31100;55.848;37.636;2023-03-05T05:56:07;3.08;;;1.05;;
45366;SDS011;31100;55.848;37.636;2023-03-05T05:58:34;2.03;;;0.93;;
45366;SDS011;31100;55.848;37.636;2023-03-05T06:01:01;1.80;;;0.90;;
45366;SDS011;31100;55.848;37.636;2023-03-05T06:03:27;3.83;;;1.00;;
45366;SDS011;31100;55.848;37.636;2023-03-05T06:05:52;3.00;;;0.98;;
45366;SDS011;31100;55.848;37.636;2023-03-05T06:08:18;4.82;;;1.20;;
45366;SDS011;31100;55.848;37.636;2023-03-05T06:10:43;5.05;;;1.20;;
45366;SDS011;31100;55.848;37.636;2023-03-05T06:13:09;5.85;;;1.60;;
45366;SDS011;31100;55.848;37.636;2023-03-05T06:15:34;2.83;;;1.02;;
45366;SDS011;31100;55.848;37.636;2023-03-05T06:18:00;2.95;;;0.93;;
45366;SDS011;31100;55.848;37.636;2023-03-05T06:20:37;2.53;;;0.88;;
45366;SDS011;31100;55.848;37.636;2023-03-05T06:23:03;2.00;;;0.82;;
45366;SDS011;31100;55.848;37.636;2023-03-05T06:25:28;4.72;;;0.95;;
45366;SDS011;31100;55.848;37.636;2023-03-05T06:27:54;4.60;;;1.20;;
45366;SDS011;31100;55.848;37.636;2023-03-05T06:30:19;4.28;;;1.20;;
45366;SDS011;31100;55.848;37.636;2023-03-05T06:32:45;3.28;;;1.20;;
45366;SDS011;31100;55.848;37.636;2023-03-05T06:35:10;3.78;;;1.38;;
45366;SDS011;31100;55.848;37.636;2023-03-05T06:37:36;2.25;;;1.10;;
45366;SDS011;31100;55.848;37.636;2023-03-05T06:40:02;4.03;;;1.30;;
45366;SDS011;31100;55.848;37.636;2023-03-05T06:42:30;4.43;;;1.42;;
45366;SDS011;31100;55.848;37.636;2023-03-05T06:44:55;3.95;;;1.40;;
45366;SDS011;31100;55.848;37.636;2023-03-05T06:47:20;7.95;;;3.95;;
45366;SDS011;31100;55.848;37.636;2023-03-05T06:49:46;4.95;;;1.95;;
45366;SDS011;31100;55.848;37.636;2023-03-05T06:52:11;5.72;;;1.50;;
45366;SDS011;31100;55.848;37.636;2023-03-05T06:54:37;4.18;;;1.80;;
45366;SDS011;31100;55.848;37.636;2023-03-05T06:57:02;4.13;;;1.58;;
45366;SDS011;31100;55.848;37.636;2023-03-05T06:59:28;7.07;;;1.85;;
45366;SDS011;31100;55.848;37.636;2023-03-05T07:01:54;4.50;;;1.98;;
45366;SDS011;31100;55.848;37.636;2023-03-05T07:04:19;6.68;;;1.80;;
45366;SDS011;31100;55.848;37.636;2023-03-05T07:06:45;10.23;;;2.00;;
45366;SDS011;31100;55.848;37.636;2023-03-05T07:09:12;11.15;;;2.97;;
45366;SDS011;31100;55.848;37.636;2023-03-05T07:11:39;6.45;;;2.08;;
45366;SDS011;31100;55.848;37.636;2023-03-05T07:14:05;10.27;;;2.97;;
45366;SDS011;31100;55.848;37.636;2023-03-05T07:16:32;4.65;;;1.80;;
45366;SDS011;31100;55.848;37.636;2023-03-05T07:18:59;9.27;;;2.63;;
45366;SDS011;31100;55.848;37.636;2023-03-05T07:21:28;6.45;;;2.20;;
45366;SDS011;31100;55.848;37.636;2023-03-05T07:23:55;8.45;;;2.20;;
45366;SDS011;31100;55.848;37.636;2023-03-05T07:26:22;7.28;;;2.08;;
45366;SDS011;31100;55.848;37.636;2023-03-05T07:28:48;6.97;;;2.20;;
45366;SDS011;31100;55.848;37.636;2023-03-05T07:31:15;5.85;;;2.58;;
45366;SDS011;31100;55.848;37.636;2023-03-05T07:33:46;6.70;;;2.75;;
45366;SDS011;31100;55.848;37.636;2023-03-05T07:36:13;4.90;;;2.53;;
45366;SDS011;31100;55.848;37.636;2023-03-05T07:38:38;5.55;;;3.28;;
45366;SDS011;31100;55.848;37.636;2023-03-05T07:41:07;6.78;;;3.65;;
45366;SDS011;31100;55.848;37.636;2023-03-05T07:43:34;5.47;;;3.08;;
45366;SDS011;31100;55.848;37.636;2023-03-05T07:46:02;4.20;;;2.78;;
45366;SDS011;31100;55.848;37.636;2023-03-05T07:48:29;6.05;;;3.15;;
45366;SDS011;31100;55.848;37.636;2023-03-05T07:51:01;5.18;;;3.20;;
45366;SDS011;31100;55.848;37.636;2023-03-05T07:53:27;5.63;;;3.42;;
45366;SDS011;31100;55.848;37.636;2023-03-05T07:55:53;5.90;;;4.13;;
45366;SDS011;31100;55.848;37.636;2023-03-05T07:58:18;6.68;;;3.97;;
45366;SDS011;31100;55.848;37.636;2023-03-05T08:00:44;5.70;;;3.15;;
45366;SDS011;31100;55.848;37.636;2023-03-05T08:03:09;4.78;;;3.15;;
45366;SDS011;31100;55.848;37.636;2023-03-05T08:05:37;8.90;;;3.90;;
45366;SDS011;31100;55.848;37.636;2023-03-05T08:08:03;7.35;;;4.28;;
45366;SDS011;31100;55.848;37.636;2023-03-05T08:10:29;7.07;;;3.83;;
45366;SDS011;31100;55.848;37.636;2023-03-05T08:12:55;6.80;;;3.95;;
45366;SDS011;31100;55.848;37.636;2023-03-05T08:15:20;7.40;;;3.92;;
45366;SDS011;31100;55.848;37.636;2023-03-05T08:17:46;7.15;;;3.53;;
45366;SDS011;31100;55.848;37.636;2023-03-05T08:20:11;6.85;;;3.60;;
45366;SDS011;31100;55.848;37.636;2023-03-05T08:22:37;6.10;;;3.33;;
45366;SDS011;31100;55.848;37.636;2023-03-05T08:25:03;5.47;;;3.65;;
45366;SDS011;31100;55.848;37.636;2023-03-05T08:27:30;6.15;;;3.50;;
45366;SDS011;31100;55.848;37.636;2023-03-05T08:29:56;5.28;;;3.33;;
45366;SDS011;31100;55.848;37.636;2023-03-05T08:32:21;5.60;;;3.38;;
45366;SDS011;31100;55.848;37.636;2023-03-05T08:34:47;5.70;;;3.25;;
45366;SDS011;31100;55.848;37.636;2023-03-05T08:37:13;5.20;;;2.90;;
45366;SDS011;31100;55.848;37.636;2023-03-05T08:39:38;4.60;;;2.60;;
45366;SDS011;31100;55.848;37.636;2023-03-05T08:42:04;4.47;;;3.10;;
45366;SDS011;31100;55.848;37.636;2023-03-05T08:44:30;4.03;;;2.70;;
45366;SDS011;31100;55.848;37.636;2023-03-05T08:46:55;4.57;;;2.70;;
45366;SDS011;31100;55.848;37.636;2023-03-05T08:49:21;4.40;;;2.55;;
45366;SDS011;31100;55.848;37.636;2023-03-05T08:51:46;4.82;;;2.55;;
45366;SDS011;31100;55.848;37.636;2023-03-05T08:54:12;4.25;;;2.72;;
45366;SDS011;31100;55.848;37.636;2023-03-05T08:56:39;5.10;;;3.00;;
45366;SDS011;31100;55.848;37.636;2023-03-05T08:59:05;4.80;;;2.80;;
45366;SDS011;31100;55.848;37.636;2023-03-05T09:01:32;5.25;;;2.80;;
45366;SDS011;31100;55.848;37.636;2023-03-05T09:03:57;6.28;;;2.60;;
45366;SDS011;31100;55.848;37.636;2023-03-05T09:06:24;6.60;;;2.88;;
45366;SDS011;31100;55.848;37.636;2023-03-05T09:08:49;5.28;;;2.95;;
45366;SDS011;31100;55.848;37.636;2023-03-05T09:11:15;5.90;;;3.40;;
45366;SDS011;31100;55.848;37.636;2023-03-05T09:13:41;5.85;;;3.80;;
45366;SDS011;31100;55.848;37.636;2023-03-05T09:16:08;6.57;;;3.53;;
45366;SDS011;31100;55.848;37.636;2023-03-05T09:18:36;6.63;;;3.50;;
45366;SDS011;31100;55.848;37.636;2023-03-05T09:21:05;7.22;;;4.00;;
45366;SDS011;31100;55.848;37.636;2023-03-05T09:23:31;7.25;;;4.07;;
45366;SDS011;31100;55.848;37.636;2023-03-05T09:25:57;7.85;;;4.72;;
45366;SDS011;31100;55.848;37.636;2023-03-05T09:28:22;6.10;;;3.70;;
45366;SDS011;31100;55.848;37.636;2023-03-05T09:30:48;5.40;;;3.60;;
45366;SDS011;31100;55.848;37.636;2023-03-05T09:33:13;5.55;;;3.55;;
45366;SDS011;31100;55.848;37.636;2023-03-05T09:35:39;6.38;;;3.80;;
45366;SDS011;31100;55.848;37.636;2023-03-05T09:38:04;5.50;;;3.55;;
45366;SDS011;31100;55.848;37.636;2023-03-05T09:40:31;5.47;;;3.33;;
45366;SDS011;31100;55.848;37.636;2023-03-05T09:43:28;5.60;;;3.42;;
45366;SDS011;31100;55.848;37.636;2023-03-05T09:48:47;5.47;;;3.40;;
45366;SDS011;31100;55.848;37.636;2023-03-05T09:51:22;5.55;;;3.28;;
45366;SDS011;31100;55.848;37.636;2023-03-05T09:53:52;5.53;;;3.40;;
45366;SDS011;31100;55.848;37.636;2023-03-05T09:56:27;5.32;;;3.67;;
45366;SDS011;31100;55.848;37.636;2023-03-05T09:59:00;5.00;;;3.45;;
45366;SDS011;31100;55.848;37.636;2023-03-05T10:01:29;5.07;;;3.80;;
45366;SDS011;31100;55.848;37.636;2023-03-05T10:04:05;4.93;;;3.42;;
45366;SDS011;31100;55.848;37.636;2023-03-05T10:06:34;6.10;;;3.88;;
45366;SDS011;31100;55.848;37.636;2023-03-05T10:11:42;8.65;;;3.95;;
45366;SDS011;31100;55.848;37.636;2023-03-05T10:14:22;6.10;;;3.38;;
45366;SDS011;31100;55.848;37.636;2023-03-05T10:16:59;7.18;;;4.15;;
45366;SDS011;31100;55.848;37.636;2023-03-05T10:22:20;5.20;;;3.45;;
45366;SDS011;31100;55.848;37.636;2023-03-05T10:27:41;7.22;;;3.67;;
45366;SDS011;31100;55.848;37.636;2023-03-05T10:35:42;8.38;;;4.10;;
45366;SDS011;31100;55.848;37.636;2023-03-05T10:38:32;6.85;;;5.03;;
45366;SDS011;31100;55.848;37.636;2023-03-05T10:44:22;5.68;;;3.90;;
45366;SDS011;31100;55.848;37.636;2023-03-05T10:46:57;5.50;;;3.70;;
45366;SDS011;31100;55.848;37.636;2023-03-05T10:49:34;5.15;;;3.67;;
45366;SDS011;31100;55.848;37.636;2023-03-05T10:52:05;4.60;;;3.45;;
45366;SDS011;31100;55.848;37.636;2023-03-05T10:54:41;4.82;;;3.47;;
45366;SDS011;31100;55.848;37.636;2023-03-05T10:59:51;6.05;;;4.10;;
45366;SDS011;31100;55.848;37.636;2023-03-05T11:02:18;6.45;;;4.22;;
45366;SDS011;31100;55.848;37.636;2023-03-05T11:04:45;5.80;;;4.25;;
45366;SDS011;31100;55.848;37.636;2023-03-05T11:09:39;7.60;;;5.03;;
45366;SDS011;31100;55.848;37.636;2023-03-05T11:12:15;7.78;;;5.22;;
45366;SDS011;31100;55.848;37.636;2023-03-05T11:25:33;5.80;;;4.47;;
45366;SDS011;31100;55.848;37.636;2023-03-05T11:28:00;6.97;;;5.10;;
45366;SDS011;31100;55.848;37.636;2023-03-05T11:30:31;6.43;;;4.55;;
45366;SDS011;31100;55.848;37.636;2023-03-05T11:35:42;6.72;;;5.15;;
45366;SDS011;31100;55.848;37.636;2023-03-05T11:38:16;7.43;;;5.35;;
45366;SDS011;31100;55.848;37.636;2023-03-05T11:40:43;7.45;;;5.55;;
45366;SDS011;31100;55.848;37.636;2023-03-05T11:43:13;7.95;;;5.72;;
45366;SDS011;31100;55.848;37.636;2023-03-05T11:45:41;11.70;;;5.68;;
45366;SDS011;31100;55.848;37.636;2023-03-05T11:48:07;7.97;;;5.05;;
45366;SDS011;31100;55.848;37.636;2023-03-05T11:50:37;8.18;;;4.93;;
45366;SDS011;31100;55.848;37.636;2023-03-05T11:53:06;7.28;;;5.32;;
45366;SDS011;31100;55.848;37.636;2023-03-05T11:55:45;7.78;;;5.25;;
45366;SDS011;31100;55.848;37.636;2023-03-05T12:01:00;7.38;;;5.53;;
45366;SDS011;31100;55.848;37.636;2023-03-05T12:03:33;6.90;;;5.10;;
45366;SDS011;31100;55.848;37.636;2023-03-05T12:06:16;6.97;;;4.97;;
45366;SDS011;31100;55.848;37.636;2023-03-05T12:08:44;6.45;;;4.80;;
45366;SDS011;31100;55.848;37.636;2023-03-05T12:11:16;6.30;;;4.88;;
45366;SDS011;31100;55.848;37.636;2023-03-05T12:13:50;7.75;;;4.90;;
45366;SDS011;31100;55.848;37.636;2023-03-05T12:16:30;6.75;;;4.80;;
45366;SDS011;31100;55.848;37.636;2023-03-05T12:21:37;7.18;;;4.30;;
45366;SDS011;31100;55.848;37.636;2023-03-05T12:24:47;5.40;;;3.80;;
45366;SDS011;31100;55.848;37.636;2023-03-05T12:31:57;8.27;;;4.00;;
45366;SDS011;31100;55.848;37.636;2023-03-05T12:34:46;6.50;;;4.20;;
45366;SDS011;31100;55.848;37.636;2023-03-05T12:47:47;6.30;;;3.60;;
45366;SDS011;31100;55.848;37.636;2023-03-05T12:58:27;5.88;;;3.38;;
45366;SDS011;31100;55.848;37.636;2023-03-05T13:01:06;4.93;;;3.65;;
45366;SDS011;31100;55.848;37.636;2023-03-05T13:06:30;5.55;;;3.75;;
45366;SDS011;31100;55.848;37.636;2023-03-05T13:08:59;4.75;;;3.53;;
45366;SDS011;31100;55.848;37.636;2023-03-05T13:11:28;6.22;;;3.60;;
45366;SDS011;31100;55.848;37.636;2023-03-05T13:13:55;4.68;;;3.28;;
45366;SDS011;31100;55.848;37.636;2023-03-05T13:16:25;5.15;;;3.30;;
45366;SDS011;31100;55.848;37.636;2023-03-05T13:18:53;4.43;;;2.90;;
45366;SDS011;31100;55.848;37.636;2023-03-05T13:21:25;4.82;;;2.90;;
45366;SDS011;31100;55.848;37.636;2023-03-05T13:23:57;5.20;;;3.15;;
45366;SDS011;31100;55.848;37.636;2023-03-05T13:26:25;7.88;;;3.90;;
45366;SDS011;31100;55.848;37.636;2023-03-05T13:31:42;5.72;;;4.15;;
45366;SDS011;31100;55.848;37.636;2023-03-05T13:34:14;5.57;;;2.85;;
45366;SDS011;31100;55.848;37.636;2023-03-05T13:39:36;6.00;;;3.13;;
45366;SDS011;31100;55.848;37.636;2023-03-05T13:42:13;4.90;;;3.08;;
45366;SDS011;31100;55.848;37.636;2023-03-05T13:44:40;6.60;;;3.17;;
45366;SDS011;31100;55.848;37.636;2023-03-05T13:49:33;4.65;;;2.92;;
45366;SDS011;31100;55.848;37.636;2023-03-05T13:51:59;8.32;;;3.22;;
45366;SDS011;31100;55.848;37.636;2023-03-05T13:54:25;4.75;;;2.60;;
45366;SDS011;31100;55.848;37.636;2023-03-05T13:56:55;6.63;;;2.92;;
45366;SDS011;31100;55.848;37.636;2023-03-05T13:59:27;5.85;;;3.20;;
45366;SDS011;31100;55.848;37.636;2023-03-05T14:01:55;5.47;;;3.03;;
45366;SDS011;31100;55.848;37.636;2023-03-05T14:04:27;5.68;;;3.10;;
45366;SDS011;31100;55.848;37.636;2023-03-05T14:06:58;4.68;;;2.83;;
45366;SDS011;31100;55.848;37.636;2023-03-05T14:11:53;6.00;;;2.85;;
45366;SDS011;31100;55.848;37.636;2023-03-05T14:14:26;4.75;;;2.85;;
45366;SDS011;31100;55.848;37.636;2023-03-05T14:16:52;5.20;;;2.80;;
45366;SDS011;31100;55.848;37.636;2023-03-05T14:21:58;4.97;;;2.50;;
45366;SDS011;31100;55.848;37.636;2023-03-05T14:24:25;5.60;;;2.75;;
45366;SDS011;31100;55.848;37.636;2023-03-05T14:26:56;4.68;;;2.80;;
45366;SDS011;31100;55.848;37.636;2023-03-05T14:29:26;5.43;;;3.00;;
45366;SDS011;31100;55.848;37.636;2023-03-05T14:32:04;5.32;;;2.30;;
45366;SDS011;31100;55.848;37.636;2023-03-05T14:34:40;5.28;;;2.67;;
45366;SDS011;31100;55.848;37.636;2023-03-05T14:37:18;7.07;;;3.40;;
45366;SDS011;31100;55.848;37.636;2023-03-05T14:45:20;9.93;;;4.07;;
45366;SDS011;31100;55.848;37.636;2023-03-05T14:47:50;5.32;;;2.65;;
45366;SDS011;31100;55.848;37.636;2023-03-05T14:50:18;5.45;;;3.40;;
45366;SDS011;31100;55.848;37.636;2023-03-05T14:52:46;5.38;;;3.85;;
45366;SDS011;31100;55.848;37.636;2023-03-05T14:55:14;5.05;;;3.35;;
45366;SDS011;31100;55.848;37.636;2023-03-05T14:57:41;6.45;;;3.75;;
45366;SDS011;31100;55.848;37.636;2023-03-05T15:00:14;6.55;;;3.45;;
45366;SDS011;31100;55.848;37.636;2023-03-05T15:02:41;7.75;;;3.95;;
45366;SDS011;31100;55.848;37.636;2023-03-05T15:05:06;7.03;;;3.67;;
45366;SDS011;31100;55.848;37.636;2023-03-05T15:07:32;6.65;;;3.72;;
45366;SDS011;31100;55.848;37.636;2023-03-05T15:09:58;8.40;;;3.38;;
45366;SDS011;31100;55.848;37.636;2023-03-05T15:12:24;6.90;;;3.63;;
45366;SDS011;31100;55.848;37.636;2023-03-05T15:14:50;6.28;;;3.78;;
45366;SDS011;31100;55.848;37.636;2023-03-05T15:17:38;6.35;;;3.63;;
45366;SDS011;31100;55.848;37.636;2023-03-05T15:20:04;8.35;;;4.43;;
45366;SDS011;31100;55.848;37.636;2023-03-05T15:22:34;5.68;;;3.30;;
45366;SDS011;31100;55.848;37.636;2023-03-05T15:25:00;5.60;;;3.08;;
45366;SDS011;31100;55.848;37.636;2023-03-05T15:27:28;7.03;;;3.60;;
45366;SDS011;31100;55.848;37.636;2023-03-05T15:29:54;6.85;;;3.15;;
45366;SDS011;31100;55.848;37.636;2023-03-05T15:32:19;4.38;;;2.85;;
45366;SDS011;31100;55.848;37.636;2023-03-05T15:34:45;4.53;;;3.00;;
45366;SDS011;31100;55.848;37.636;2023-03-05T15:37:11;6.85;;;3.28;;
45366;SDS011;31100;55.848;37.636;2023-03-05T15:39:36;4.75;;;2.88;;
45366;SDS011;31100;55.848;37.636;2023-03-05T15:42:02;6.38;;;3.38;;
45366;SDS011;31100;55.848;37.636;2023-03-05T15:44:27;6.85;;;4.15;;
45366;SDS011;31100;55.848;37.636;2023-03-05T15:46:54;8.02;;;4.38;;
45366;SDS011;31100;55.848;37.636;2023-03-05T15:49:21;7.85;;;4.30;;
45366;SDS011;31100;55.848;37.636;2023-03-05T15:51:48;6.03;;;4.18;;
45366;SDS011;31100;55.848;37.636;2023-03-05T15:54:14;6.97;;;4.40;;
45366;SDS011;31100;55.848;37.636;2023-03-05T15:56:40;9.30;;;5.10;;
45366;SDS011;31100;55.848;37.636;2023-03-05T15:59:06;7.97;;;4.90;;
45366;SDS011;31100;55.848;37.636;2023-03-05T16:01:35;7.38;;;5.40;;
45366;SDS011;31100;55.848;37.636;2023-03-05T16:04:01;14.35;;;7.22;;
45366;SDS011;31100;55.848;37.636;2023-03-05T16:06:27;14.75;;;6.43;;
45366;SDS011;31100;55.848;37.636;2023-03-05T16:09:02;11.75;;;6.32;;